sensor_id;sensor_type;location;lat;lon;timestamp;temperature;humidity
59309;DHT22;48433;53.016;-2.260;2023-06-22T00:00:26;17.50;99.90
59309;DHT22;48433;53.016;-2.260;2023-06-22T00:02:54;17.50;99.90
59309;DHT22;48433;53.016;-2.260;2023-06-22T00:05:22;17.50;99.90
59309;DHT22;48433;53.016;-2.260;2023-06-22T00:07:50;17.50;99.90
59309;DHT22;48433;53.016;-2.260;2023-06-22T00:10:17;17.50;99.90
59309;DHT22;48433;53.016;-2.260;2023-06-22T00:12:45;17.50;99.90
59309;DHT22;48433;53.016;-2.260;2023-06-22T00:15:13;17.50;99.90
59309;DHT22;48433;53.016;-2.260;2023-06-22T00:17:40;17.50;99.90
59309;DHT22;48433;53.016;-2.260;2023-06-22T00:20:08;17.50;99.90
59309;DHT22;48433;53.016;-2.260;2023-06-22T00:22:37;17.50;99.90
59309;DHT22;48433;53.016;-2.260;2023-06-22T00:25:07;17.50;99.90
59309;DHT22;48433;53.016;-2.260;2023-06-22T00:27:35;17.40;99.90
59309;DHT22;48433;53.016;-2.260;2023-06-22T00:30:05;17.30;99.90
59309;DHT22;48433;53.016;-2.260;2023-06-22T00:32:33;17.30;99.90
59309;DHT22;48433;53.016;-2.260;2023-06-22T00:35:01;17.20;99.90
59309;DHT22;48433;53.016;-2.260;2023-06-22T00:37:29;17.20;99.90
59309;DHT22;48433;53.016;-2.260;2023-06-22T00:39:57;17.20;99.90
59309;DHT22;48433;53.016;-2.260;2023-06-22T00:42:25;17.20;99.90
59309;DHT22;48433;53.016;-2.260;2023-06-22T00:44:53;17.20;99.90
59309;DHT22;48433;53.016;-2.260;2023-06-22T00:47:21;17.20;99.90
59309;DHT22;48433;53.016;-2.260;2023-06-22T00:49:49;17.20;99.90
59309;DHT22;48433;53.016;-2.260;2023-06-22T00:52:21;17.20;99.90
59309;DHT22;48433;53.016;-2.260;2023-06-22T00:54:56;17.20;99.90
59309;DHT22;48433;53.016;-2.260;2023-06-22T00:57:24;17.20;99.90
59309;DHT22;48433;53.016;-2.260;2023-06-22T00:59:55;17.20;99.90
59309;DHT22;48433;53.016;-2.260;2023-06-22T01:02:23;17.10;99.90
59309;DHT22;48433;53.016;-2.260;2023-06-22T01:04:51;17.10;99.90
59309;DHT22;48433;53.016;-2.260;2023-06-22T01:13:26;17.10;99.90
59309;DHT22;48433;53.016;-2.260;2023-06-22T01:16:03;17.10;99.90
59309;DHT22;48433;53.016;-2.260;2023-06-22T01:18:35;17.10;99.90
59309;DHT22;48433;53.016;-2.260;2023-06-22T01:21:07;17.10;99.90
59309;DHT22;48433;53.016;-2.260;2023-06-22T01:26:38;17.10;99.90
59309;DHT22;48433;53.016;-2.260;2023-06-22T01:29:11;17.10;99.90
59309;DHT22;48433;53.016;-2.260;2023-06-22T01:31:42;17.10;99.90
59309;DHT22;48433;53.016;-2.260;2023-06-22T01:34:12;17.10;99.90
59309;DHT22;48433;53.016;-2.260;2023-06-22T01:36:40;17.00;99.90
59309;DHT22;48433;53.016;-2.260;2023-06-22T01:39:09;17.10;99.90
59309;DHT22;48433;53.016;-2.260;2023-06-22T01:41:37;17.10;99.90
59309;DHT22;48433;53.016;-2.260;2023-06-22T01:44:06;17.10;99.90
59309;DHT22;48433;53.016;-2.260;2023-06-22T01:46:36;17.00;99.90
59309;DHT22;48433;53.016;-2.260;2023-06-22T01:49:04;17.00;99.90
59309;DHT22;48433;53.016;-2.260;2023-06-22T01:51:32;17.00;99.90
59309;DHT22;48433;53.016;-2.260;2023-06-22T01:54:01;17.00;99.90
59309;DHT22;48433;53.016;-2.260;2023-06-22T01:56:29;17.00;99.90
59309;DHT22;48433;53.016;-2.260;2023-06-22T01:59:12;17.00;99.90
59309;DHT22;48433;53.016;-2.260;2023-06-22T02:01:46;17.00;99.90
59309;DHT22;48433;53.016;-2.260;2023-06-22T02:04:26;17.00;99.90
59309;DHT22;48433;53.016;-2.260;2023-06-22T02:06:58;17.10;99.90
59309;DHT22;48433;53.016;-2.260;2023-06-22T02:09:29;17.10;99.90
59309;DHT22;48433;53.016;-2.260;2023-06-22T02:11:59;17.00;99.90
59309;DHT22;48433;53.016;-2.260;2023-06-22T02:14:28;17.10;99.90
59309;DHT22;48433;53.016;-2.260;2023-06-22T02:16:56;17.20;99.90
59309;DHT22;48433;53.016;-2.260;2023-06-22T02:19:27;17.20;99.90
59309;DHT22;48433;53.016;-2.260;2023-06-22T02:21:55;17.20;99.90
59309;DHT22;48433;53.016;-2.260;2023-06-22T02:24:22;17.20;99.90
59309;DHT22;48433;53.016;-2.260;2023-06-22T02:26:50;17.30;99.90
59309;DHT22;48433;53.016;-2.260;2023-06-22T02:29:18;17.30;99.90
59309;DHT22;48433;53.016;-2.260;2023-06-22T02:31:46;17.30;99.90
59309;DHT22;48433;53.016;-2.260;2023-06-22T02:34:13;17.30;99.90
59309;DHT22;48433;53.016;-2.260;2023-06-22T02:36:47;17.30;99.90
59309;DHT22;48433;53.016;-2.260;2023-06-22T02:39:20;17.30;99.90
59309;DHT22;48433;53.016;-2.260;2023-06-22T02:41:51;17.30;99.90
59309;DHT22;48433;53.016;-2.260;2023-06-22T02:44:19;17.30;99.90
59309;DHT22;48433;53.016;-2.260;2023-06-22T02:46:48;17.30;99.90
59309;DHT22;48433;53.016;-2.260;2023-06-22T02:49:16;17.30;99.90
59309;DHT22;48433;53.016;-2.260;2023-06-22T02:51:48;17.20;99.90
59309;DHT22;48433;53.016;-2.260;2023-06-22T02:54:19;17.20;99.90
59309;DHT22;48433;53.016;-2.260;2023-06-22T02:56:50;17.20;99.90
59309;DHT22;48433;53.016;-2.260;2023-06-22T02:59:19;17.20;99.90
59309;DHT22;48433;53.016;-2.260;2023-06-22T03:01:53;17.20;99.90
59309;DHT22;48433;53.016;-2.260;2023-06-22T03:04:26;17.30;99.90
59309;DHT22;48433;53.016;-2.260;2023-06-22T03:06:54;17.20;99.90
59309;DHT22;48433;53.016;-2.260;2023-06-22T03:09:21;17.20;99.90
59309;DHT22;48433;53.016;-2.260;2023-06-22T03:11:49;17.20;99.90
59309;DHT22;48433;53.016;-2.260;2023-06-22T03:14:18;17.20;99.90
59309;DHT22;48433;53.016;-2.260;2023-06-22T03:16:45;17.30;99.90
59309;DHT22;48433;53.016;-2.260;2023-06-22T03:19:13;17.20;99.90
59309;DHT22;48433;53.016;-2.260;2023-06-22T03:21:41;17.30;99.90
59309;DHT22;48433;53.016;-2.260;2023-06-22T03:24:08;17.30;99.90
59309;DHT22;48433;53.016;-2.260;2023-06-22T03:26:36;17.30;99.90
59309;DHT22;48433;53.016;-2.260;2023-06-22T03:29:04;17.30;99.90
59309;DHT22;48433;53.016;-2.260;2023-06-22T03:31:33;17.20;99.90
59309;DHT22;48433;53.016;-2.260;2023-06-22T03:34:01;17.20;99.90
59309;DHT22;48433;53.016;-2.260;2023-06-22T03:36:29;17.20;99.90
59309;DHT22;48433;53.016;-2.260;2023-06-22T03:38:56;17.20;99.90
59309;DHT22;48433;53.016;-2.260;2023-06-22T03:41:24;17.20;99.90
59309;DHT22;48433;53.016;-2.260;2023-06-22T03:43:53;17.20;99.90
59309;DHT22;48433;53.016;-2.260;2023-06-22T03:46:20;17.20;99.90
59309;DHT22;48433;53.016;-2.260;2023-06-22T03:48:48;17.30;99.90
59309;DHT22;48433;53.016;-2.260;2023-06-22T03:51:16;17.20;99.90
59309;DHT22;48433;53.016;-2.260;2023-06-22T03:53:43;17.20;99.90
59309;DHT22;48433;53.016;-2.260;2023-06-22T03:56:11;17.30;99.90
59309;DHT22;48433;53.016;-2.260;2023-06-22T03:58:38;17.20;99.90
59309;DHT22;48433;53.016;-2.260;2023-06-22T04:01:10;17.20;99.90
59309;DHT22;48433;53.016;-2.260;2023-06-22T04:03:39;17.30;99.90
59309;DHT22;48433;53.016;-2.260;2023-06-22T04:06:07;17.30;99.90
59309;DHT22;48433;53.016;-2.260;2023-06-22T04:08:34;17.30;99.90
59309;DHT22;48433;53.016;-2.260;2023-06-22T04:11:02;17.30;99.90
59309;DHT22;48433;53.016;-2.260;2023-06-22T04:13:29;17.30;99.90
59309;DHT22;48433;53.016;-2.260;2023-06-22T04:15:57;17.30;99.90
59309;DHT22;48433;53.016;-2.260;2023-06-22T04:18:25;17.30;99.90
59309;DHT22;48433;53.016;-2.260;2023-06-22T04:20:53;17.30;99.90
59309;DHT22;48433;53.016;-2.260;2023-06-22T04:23:21;17.30;99.90
59309;DHT22;48433;53.016;-2.260;2023-06-22T04:25:48;17.20;99.90
59309;DHT22;48433;53.016;-2.260;2023-06-22T04:28:16;17.30;99.90
59309;DHT22;48433;53.016;-2.260;2023-06-22T04:30:44;17.20;99.90
59309;DHT22;48433;53.016;-2.260;2023-06-22T04:33:15;17.20;99.90
59309;DHT22;48433;53.016;-2.260;2023-06-22T04:35:45;17.20;99.90
59309;DHT22;48433;53.016;-2.260;2023-06-22T04:38:13;17.10;99.90
59309;DHT22;48433;53.016;-2.260;2023-06-22T04:40:41;17.10;99.90
59309;DHT22;48433;53.016;-2.260;2023-06-22T04:43:08;17.10;99.90
59309;DHT22;48433;53.016;-2.260;2023-06-22T04:45:37;17.10;99.90
59309;DHT22;48433;53.016;-2.260;2023-06-22T04:48:06;17.10;99.90
59309;DHT22;48433;53.016;-2.260;2023-06-22T04:50:33;17.00;99.90
59309;DHT22;48433;53.016;-2.260;2023-06-22T04:53:01;17.10;99.90
59309;DHT22;48433;53.016;-2.260;2023-06-22T04:55:32;17.00;99.90
59309;DHT22;48433;53.016;-2.260;2023-06-22T04:58:00;17.00;99.90
59309;DHT22;48433;53.016;-2.260;2023-06-22T05:00:32;17.00;99.90
59309;DHT22;48433;53.016;-2.260;2023-06-22T05:03:00;17.00;99.90
59309;DHT22;48433;53.016;-2.260;2023-06-22T05:05:45;17.00;99.90
59309;DHT22;48433;53.016;-2.260;2023-06-22T05:08:13;17.00;99.90
59309;DHT22;48433;53.016;-2.260;2023-06-22T05:10:41;17.00;99.90
59309;DHT22;48433;53.016;-2.260;2023-06-22T05:13:25;17.10;99.90
59309;DHT22;48433;53.016;-2.260;2023-06-22T05:15:54;17.10;99.90
59309;DHT22;48433;53.016;-2.260;2023-06-22T05:18:30;17.10;99.90
59309;DHT22;48433;53.016;-2.260;2023-06-22T05:20:59;17.10;99.90
59309;DHT22;48433;53.016;-2.260;2023-06-22T05:23:27;17.10;99.90
59309;DHT22;48433;53.016;-2.260;2023-06-22T05:25:54;17.10;99.90
59309;DHT22;48433;53.016;-2.260;2023-06-22T05:28:25;17.10;99.90
59309;DHT22;48433;53.016;-2.260;2023-06-22T05:30:53;17.20;99.90
59309;DHT22;48433;53.016;-2.260;2023-06-22T05:33:20;17.20;99.90
59309;DHT22;48433;53.016;-2.260;2023-06-22T05:35:48;17.20;99.90
59309;DHT22;48433;53.016;-2.260;2023-06-22T05:38:16;17.20;99.90
59309;DHT22;48433;53.016;-2.260;2023-06-22T05:40:43;17.30;99.90
59309;DHT22;48433;53.016;-2.260;2023-06-22T05:43:11;17.30;99.90
59309;DHT22;48433;53.016;-2.260;2023-06-22T05:45:38;17.30;99.90
59309;DHT22;48433;53.016;-2.260;2023-06-22T05:48:06;17.50;99.90
59309;DHT22;48433;53.016;-2.260;2023-06-22T05:50:34;17.50;99.90
59309;DHT22;48433;53.016;-2.260;2023-06-22T05:53:01;17.60;99.90
59309;DHT22;48433;53.016;-2.260;2023-06-22T05:55:29;17.70;99.90
59309;DHT22;48433;53.016;-2.260;2023-06-22T05:57:56;17.80;99.90
59309;DHT22;48433;53.016;-2.260;2023-06-22T06:00:24;17.90;99.90
59309;DHT22;48433;53.016;-2.260;2023-06-22T06:02:52;18.00;99.90
59309;DHT22;48433;53.016;-2.260;2023-06-22T06:05:19;18.00;99.90
59309;DHT22;48433;53.016;-2.260;2023-06-22T06:07:47;18.10;99.90
59309;DHT22;48433;53.016;-2.260;2023-06-22T06:10:15;18.30;99.90
59309;DHT22;48433;53.016;-2.260;2023-06-22T06:12:42;18.30;99.90
59309;DHT22;48433;53.016;-2.260;2023-06-22T06:15:10;18.30;99.90
59309;DHT22;48433;53.016;-2.260;2023-06-22T06:17:48;18.40;99.90
59309;DHT22;48433;53.016;-2.260;2023-06-22T06:20:19;18.50;99.90
59309;DHT22;48433;53.016;-2.260;2023-06-22T06:22:47;18.60;99.90
59309;DHT22;48433;53.016;-2.260;2023-06-22T06:25:15;18.60;99.90
59309;DHT22;48433;53.016;-2.260;2023-06-22T06:27:46;18.60;99.90
59309;DHT22;48433;53.016;-2.260;2023-06-22T06:30:15;18.70;99.90
59309;DHT22;48433;53.016;-2.260;2023-06-22T06:32:44;18.70;99.90
59309;DHT22;48433;53.016;-2.260;2023-06-22T06:35:15;18.70;99.90
59309;DHT22;48433;53.016;-2.260;2023-06-22T06:37:45;18.80;99.90
59309;DHT22;48433;53.016;-2.260;2023-06-22T06:40:14;18.90;99.90
59309;DHT22;48433;53.016;-2.260;2023-06-22T06:42:44;19.00;99.90
59309;DHT22;48433;53.016;-2.260;2023-06-22T06:45:17;19.10;99.90
59309;DHT22;48433;53.016;-2.260;2023-06-22T06:47:45;19.30;99.90
59309;DHT22;48433;53.016;-2.260;2023-06-22T06:50:13;19.40;99.90
59309;DHT22;48433;53.016;-2.260;2023-06-22T06:52:40;19.40;99.90
59309;DHT22;48433;53.016;-2.260;2023-06-22T06:55:09;19.60;99.90
59309;DHT22;48433;53.016;-2.260;2023-06-22T06:57:40;19.70;99.90
59309;DHT22;48433;53.016;-2.260;2023-06-22T07:00:11;19.80;99.90
59309;DHT22;48433;53.016;-2.260;2023-06-22T07:02:43;19.70;99.90
59309;DHT22;48433;53.016;-2.260;2023-06-22T07:05:12;19.80;99.90
59309;DHT22;48433;53.016;-2.260;2023-06-22T07:07:40;19.80;99.90
59309;DHT22;48433;53.016;-2.260;2023-06-22T07:10:11;19.90;99.90
59309;DHT22;48433;53.016;-2.260;2023-06-22T07:12:39;19.90;99.90
59309;DHT22;48433;53.016;-2.260;2023-06-22T07:15:08;19.90;99.90
59309;DHT22;48433;53.016;-2.260;2023-06-22T07:17:37;20.00;99.90
59309;DHT22;48433;53.016;-2.260;2023-06-22T07:20:05;20.00;99.90
59309;DHT22;48433;53.016;-2.260;2023-06-22T07:22:36;20.00;99.90
59309;DHT22;48433;53.016;-2.260;2023-06-22T07:25:05;19.90;99.90
59309;DHT22;48433;53.016;-2.260;2023-06-22T07:27:56;19.90;99.90
59309;DHT22;48433;53.016;-2.260;2023-06-22T07:30:24;20.00;99.90
59309;DHT22;48433;53.016;-2.260;2023-06-22T07:32:52;20.00;99.90
59309;DHT22;48433;53.016;-2.260;2023-06-22T07:35:19;20.00;99.90
59309;DHT22;48433;53.016;-2.260;2023-06-22T07:37:47;20.20;99.90
59309;DHT22;48433;53.016;-2.260;2023-06-22T07:40:15;20.40;99.90
59309;DHT22;48433;53.016;-2.260;2023-06-22T07:42:42;20.50;99.90
59309;DHT22;48433;53.016;-2.260;2023-06-22T07:45:11;20.50;99.90
59309;DHT22;48433;53.016;-2.260;2023-06-22T07:47:39;20.60;99.90
59309;DHT22;48433;53.016;-2.260;2023-06-22T07:50:06;20.70;99.90
59309;DHT22;48433;53.016;-2.260;2023-06-22T07:52:34;20.70;99.90
59309;DHT22;48433;53.016;-2.260;2023-06-22T07:55:02;20.70;99.90
59309;DHT22;48433;53.016;-2.260;2023-06-22T07:57:30;20.80;99.90
59309;DHT22;48433;53.016;-2.260;2023-06-22T08:00:04;20.90;99.90
59309;DHT22;48433;53.016;-2.260;2023-06-22T08:02:40;20.90;99.90
59309;DHT22;48433;53.016;-2.260;2023-06-22T08:05:09;21.10;99.90
59309;DHT22;48433;53.016;-2.260;2023-06-22T08:07:57;21.20;99.90
59309;DHT22;48433;53.016;-2.260;2023-06-22T08:10:25;21.20;99.90
59309;DHT22;48433;53.016;-2.260;2023-06-22T08:12:53;21.20;99.90
59309;DHT22;48433;53.016;-2.260;2023-06-22T08:15:20;21.40;99.90
59309;DHT22;48433;53.016;-2.260;2023-06-22T08:17:49;21.50;99.90
59309;DHT22;48433;53.016;-2.260;2023-06-22T08:20:17;21.40;99.90
59309;DHT22;48433;53.016;-2.260;2023-06-22T08:22:44;21.40;99.90
59309;DHT22;48433;53.016;-2.260;2023-06-22T08:25:12;21.50;99.90
59309;DHT22;48433;53.016;-2.260;2023-06-22T08:27:44;21.70;99.90
59309;DHT22;48433;53.016;-2.260;2023-06-22T08:30:11;21.90;99.90
59309;DHT22;48433;53.016;-2.260;2023-06-22T08:32:39;22.00;99.90
59309;DHT22;48433;53.016;-2.260;2023-06-22T08:35:07;22.10;99.90
59309;DHT22;48433;53.016;-2.260;2023-06-22T08:37:38;22.00;99.90
59309;DHT22;48433;53.016;-2.260;2023-06-22T08:40:10;22.00;99.90
59309;DHT22;48433;53.016;-2.260;2023-06-22T08:42:40;22.00;99.90
59309;DHT22;48433;53.016;-2.260;2023-06-22T08:45:09;21.90;99.90
59309;DHT22;48433;53.016;-2.260;2023-06-22T08:47:37;21.90;99.90
59309;DHT22;48433;53.016;-2.260;2023-06-22T08:50:06;21.90;99.90
59309;DHT22;48433;53.016;-2.260;2023-06-22T08:52:35;21.90;99.90
59309;DHT22;48433;53.016;-2.260;2023-06-22T08:55:04;21.80;99.90
59309;DHT22;48433;53.016;-2.260;2023-06-22T08:57:32;21.80;99.90
59309;DHT22;48433;53.016;-2.260;2023-06-22T09:00:00;21.60;99.90
59309;DHT22;48433;53.016;-2.260;2023-06-22T09:02:28;21.60;99.90
59309;DHT22;48433;53.016;-2.260;2023-06-22T09:04:58;21.60;99.90
59309;DHT22;48433;53.016;-2.260;2023-06-22T09:07:27;21.60;99.90
59309;DHT22;48433;53.016;-2.260;2023-06-22T09:09:55;21.50;99.90
59309;DHT22;48433;53.016;-2.260;2023-06-22T09:12:23;21.50;99.90
59309;DHT22;48433;53.016;-2.260;2023-06-22T09:14:53;21.40;99.90
59309;DHT22;48433;53.016;-2.260;2023-06-22T09:17:22;21.40;99.90
59309;DHT22;48433;53.016;-2.260;2023-06-22T09:19:50;21.40;99.90
59309;DHT22;48433;53.016;-2.260;2023-06-22T09:22:17;21.40;99.90
59309;DHT22;48433;53.016;-2.260;2023-06-22T09:24:45;21.40;99.90
59309;DHT22;48433;53.016;-2.260;2023-06-22T09:27:13;21.40;99.90
59309;DHT22;48433;53.016;-2.260;2023-06-22T09:29:41;21.80;99.90
59309;DHT22;48433;53.016;-2.260;2023-06-22T09:32:08;21.80;99.90
59309;DHT22;48433;53.016;-2.260;2023-06-22T09:34:36;21.90;99.90
59309;DHT22;48433;53.016;-2.260;2023-06-22T09:37:04;22.00;99.90
59309;DHT22;48433;53.016;-2.260;2023-06-22T09:39:32;22.00;99.90
59309;DHT22;48433;53.016;-2.260;2023-06-22T09:41:59;22.10;99.90
59309;DHT22;48433;53.016;-2.260;2023-06-22T09:44:27;22.10;99.90
59309;DHT22;48433;53.016;-2.260;2023-06-22T09:46:55;22.20;99.90
59309;DHT22;48433;53.016;-2.260;2023-06-22T09:49:22;22.10;99.90
59309;DHT22;48433;53.016;-2.260;2023-06-22T09:52:10;22.10;99.90
59309;DHT22;48433;53.016;-2.260;2023-06-22T09:57:06;22.00;99.90
59309;DHT22;48433;53.016;-2.260;2023-06-22T09:59:34;22.10;99.90
59309;DHT22;48433;53.016;-2.260;2023-06-22T10:02:02;22.10;99.90
59309;DHT22;48433;53.016;-2.260;2023-06-22T10:04:29;22.20;99.90
59309;DHT22;48433;53.016;-2.260;2023-06-22T10:09:26;23.10;99.90
59309;DHT22;48433;53.016;-2.260;2023-06-22T10:11:53;23.10;99.90
59309;DHT22;48433;53.016;-2.260;2023-06-22T10:14:21;23.90;99.90
59309;DHT22;48433;53.016;-2.260;2023-06-22T10:19:17;24.50;99.90
59309;DHT22;48433;53.016;-2.260;2023-06-22T10:21:44;24.80;99.90
59309;DHT22;48433;53.016;-2.260;2023-06-22T10:24:12;25.40;99.90
59309;DHT22;48433;53.016;-2.260;2023-06-22T10:26:39;26.00;99.90
59309;DHT22;48433;53.016;-2.260;2023-06-22T10:29:07;26.50;99.80
59309;DHT22;48433;53.016;-2.260;2023-06-22T10:31:43;27.20;98.40
59309;DHT22;48433;53.016;-2.260;2023-06-22T10:34:11;27.80;98.00
59309;DHT22;48433;53.016;-2.260;2023-06-22T10:36:39;28.40;97.20
59309;DHT22;48433;53.016;-2.260;2023-06-22T10:39:06;29.00;95.90
59309;DHT22;48433;53.016;-2.260;2023-06-22T10:41:35;29.40;94.20
59309;DHT22;48433;53.016;-2.260;2023-06-22T10:44:03;29.80;93.40
59309;DHT22;48433;53.016;-2.260;2023-06-22T10:46:31;30.10;92.50
59309;DHT22;48433;53.016;-2.260;2023-06-22T10:48:58;30.60;90.00
59309;DHT22;48433;53.016;-2.260;2023-06-22T10:51:26;30.80;85.70
59309;DHT22;48433;53.016;-2.260;2023-06-22T10:53:55;30.80;86.90
59309;DHT22;48433;53.016;-2.260;2023-06-22T10:56:23;30.80;84.50
59309;DHT22;48433;53.016;-2.260;2023-06-22T10:58:50;30.50;83.00
59309;DHT22;48433;53.016;-2.260;2023-06-22T11:01:18;30.20;81.60
59309;DHT22;48433;53.016;-2.260;2023-06-22T11:03:52;30.10;82.30
59309;DHT22;48433;53.016;-2.260;2023-06-22T11:06:20;30.30;82.90
59309;DHT22;48433;53.016;-2.260;2023-06-22T11:08:48;30.90;82.30
59309;DHT22;48433;53.016;-2.260;2023-06-22T11:11:33;31.70;80.10
59309;DHT22;48433;53.016;-2.260;2023-06-22T11:14:00;32.30;78.70
59309;DHT22;48433;53.016;-2.260;2023-06-22T11:16:28;32.60;76.90
59309;DHT22;48433;53.016;-2.260;2023-06-22T11:18:56;32.80;76.20
59309;DHT22;48433;53.016;-2.260;2023-06-22T11:23:52;32.60;73.20
59309;DHT22;48433;53.016;-2.260;2023-06-22T11:26:20;32.30;73.20
59309;DHT22;48433;53.016;-2.260;2023-06-22T11:28:48;31.80;73.20
59309;DHT22;48433;53.016;-2.260;2023-06-22T11:31:16;31.70;72.40
59309;DHT22;48433;53.016;-2.260;2023-06-22T11:33:53;31.80;73.00
59309;DHT22;48433;53.016;-2.260;2023-06-22T11:36:20;32.10;72.60
59309;DHT22;48433;53.016;-2.260;2023-06-22T11:38:48;32.10;71.70
59309;DHT22;48433;53.016;-2.260;2023-06-22T11:41:16;31.60;71.30
59309;DHT22;48433;53.016;-2.260;2023-06-22T11:43:44;31.30;72.40
59309;DHT22;48433;53.016;-2.260;2023-06-22T11:46:12;31.00;73.00
59309;DHT22;48433;53.016;-2.260;2023-06-22T11:48:39;30.80;74.10
59309;DHT22;48433;53.016;-2.260;2023-06-22T11:53:35;31.30;73.40
59309;DHT22;48433;53.016;-2.260;2023-06-22T11:56:03;30.70;71.80
59309;DHT22;48433;53.016;-2.260;2023-06-22T11:58:31;30.70;72.50
59309;DHT22;48433;53.016;-2.260;2023-06-22T12:00:58;29.80;73.20
59309;DHT22;48433;53.016;-2.260;2023-06-22T12:03:26;29.40;74.40
59309;DHT22;48433;53.016;-2.260;2023-06-22T12:05:53;29.00;75.50
59309;DHT22;48433;53.016;-2.260;2023-06-22T12:08:21;29.20;76.00
59309;DHT22;48433;53.016;-2.260;2023-06-22T12:10:50;30.00;73.60
59309;DHT22;48433;53.016;-2.260;2023-06-22T12:13:17;30.30;74.80
59309;DHT22;48433;53.016;-2.260;2023-06-22T12:15:45;30.80;72.80
59309;DHT22;48433;53.016;-2.260;2023-06-22T12:18:13;31.50;70.80
59309;DHT22;48433;53.016;-2.260;2023-06-22T12:20:43;32.00;65.70
59309;DHT22;48433;53.016;-2.260;2023-06-22T12:23:10;32.00;66.40
59309;DHT22;48433;53.016;-2.260;2023-06-22T12:25:38;32.20;66.40
59309;DHT22;48433;53.016;-2.260;2023-06-22T12:28:06;32.40;65.20
59309;DHT22;48433;53.016;-2.260;2023-06-22T12:30:33;32.80;63.20
59309;DHT22;48433;53.016;-2.260;2023-06-22T12:33:01;32.90;63.60
59309;DHT22;48433;53.016;-2.260;2023-06-22T12:35:29;33.20;62.90
59309;DHT22;48433;53.016;-2.260;2023-06-22T12:37:56;33.50;60.40
59309;DHT22;48433;53.016;-2.260;2023-06-22T12:40:24;33.60;57.90
59309;DHT22;48433;53.016;-2.260;2023-06-22T12:42:52;33.60;58.70
59309;DHT22;48433;53.016;-2.260;2023-06-22T12:45:19;33.90;59.70
59309;DHT22;48433;53.016;-2.260;2023-06-22T12:47:49;34.20;59.30
59309;DHT22;48433;53.016;-2.260;2023-06-22T12:50:17;33.50;58.70
59309;DHT22;48433;53.016;-2.260;2023-06-22T12:52:45;33.40;59.50
59309;DHT22;48433;53.016;-2.260;2023-06-22T12:55:13;33.40;59.20
59309;DHT22;48433;53.016;-2.260;2023-06-22T12:57:40;33.40;58.70
59309;DHT22;48433;53.016;-2.260;2023-06-22T13:00:08;33.50;57.20
59309;DHT22;48433;53.016;-2.260;2023-06-22T13:02:37;33.60;57.80
59309;DHT22;48433;53.016;-2.260;2023-06-22T13:05:05;33.80;57.40
59309;DHT22;48433;53.016;-2.260;2023-06-22T13:07:33;33.80;56.90
59309;DHT22;48433;53.016;-2.260;2023-06-22T13:10:01;33.60;55.40
59309;DHT22;48433;53.016;-2.260;2023-06-22T13:12:29;33.60;55.50
59309;DHT22;48433;53.016;-2.260;2023-06-22T13:14:56;33.50;56.20
59309;DHT22;48433;53.016;-2.260;2023-06-22T13:17:27;33.50;56.80
59309;DHT22;48433;53.016;-2.260;2023-06-22T13:19:55;33.50;55.90
59309;DHT22;48433;53.016;-2.260;2023-06-22T13:22:33;33.60;55.10
59309;DHT22;48433;53.016;-2.260;2023-06-22T13:30:11;33.70;55.00
59309;DHT22;48433;53.016;-2.260;2023-06-22T13:32:41;33.70;55.80
59309;DHT22;48433;53.016;-2.260;2023-06-22T13:35:11;33.60;55.90
59309;DHT22;48433;53.016;-2.260;2023-06-22T13:37:38;33.70;55.90
59309;DHT22;48433;53.016;-2.260;2023-06-22T13:40:07;33.90;54.60
59309;DHT22;48433;53.016;-2.260;2023-06-22T13:42:35;33.90;55.20
59309;DHT22;48433;53.016;-2.260;2023-06-22T13:45:04;34.10;54.90
59309;DHT22;48433;53.016;-2.260;2023-06-22T13:47:32;33.80;54.70
59309;DHT22;48433;53.016;-2.260;2023-06-22T13:49:59;33.80;54.30
59309;DHT22;48433;53.016;-2.260;2023-06-22T13:52:27;33.80;54.90
59309;DHT22;48433;53.016;-2.260;2023-06-22T13:54:55;34.10;54.50
59309;DHT22;48433;53.016;-2.260;2023-06-22T13:57:22;34.30;54.10
59309;DHT22;48433;53.016;-2.260;2023-06-22T13:59:50;34.40;51.70
59309;DHT22;48433;53.016;-2.260;2023-06-22T14:02:18;34.30;52.30
59309;DHT22;48433;53.016;-2.260;2023-06-22T14:04:46;34.10;52.30
59309;DHT22;48433;53.016;-2.260;2023-06-22T14:07:14;34.00;52.70
59309;DHT22;48433;53.016;-2.260;2023-06-22T14:09:41;33.80;51.80
59309;DHT22;48433;53.016;-2.260;2023-06-22T14:12:10;33.90;52.40
59309;DHT22;48433;53.016;-2.260;2023-06-22T14:14:37;33.90;51.60
59309;DHT22;48433;53.016;-2.260;2023-06-22T14:17:05;34.00;52.20
59309;DHT22;48433;53.016;-2.260;2023-06-22T14:19:33;34.10;52.40
59309;DHT22;48433;53.016;-2.260;2023-06-22T14:22:00;34.30;51.90
59309;DHT22;48433;53.016;-2.260;2023-06-22T14:24:28;34.30;51.80
59309;DHT22;48433;53.016;-2.260;2023-06-22T14:26:57;34.30;51.90
59309;DHT22;48433;53.016;-2.260;2023-06-22T14:29:25;34.50;51.40
59309;DHT22;48433;53.016;-2.260;2023-06-22T14:31:53;34.70;50.50
59309;DHT22;48433;53.016;-2.260;2023-06-22T14:34:21;34.90;50.80
59309;DHT22;48433;53.016;-2.260;2023-06-22T14:36:48;35.20;50.50
59309;DHT22;48433;53.016;-2.260;2023-06-22T14:39:16;35.60;49.50
59309;DHT22;48433;53.016;-2.260;2023-06-22T14:41:43;35.40;48.20
59309;DHT22;48433;53.016;-2.260;2023-06-22T14:44:11;35.50;49.20
59309;DHT22;48433;53.016;-2.260;2023-06-22T14:46:38;35.50;48.60
59309;DHT22;48433;53.016;-2.260;2023-06-22T14:49:06;35.50;48.40
59309;DHT22;48433;53.016;-2.260;2023-06-22T14:51:34;35.50;47.60
59309;DHT22;48433;53.016;-2.260;2023-06-22T14:54:01;35.40;48.50
59309;DHT22;48433;53.016;-2.260;2023-06-22T14:56:29;35.10;47.90
59309;DHT22;48433;53.016;-2.260;2023-06-22T14:58:59;35.00;47.30
59309;DHT22;48433;53.016;-2.260;2023-06-22T15:01:26;34.70;47.10
59309;DHT22;48433;53.016;-2.260;2023-06-22T15:03:54;34.50;48.20
59309;DHT22;48433;53.016;-2.260;2023-06-22T15:06:22;34.40;48.40
59309;DHT22;48433;53.016;-2.260;2023-06-22T15:08:50;34.40;48.40
59309;DHT22;48433;53.016;-2.260;2023-06-22T15:13:46;34.60;47.40
59309;DHT22;48433;53.016;-2.260;2023-06-22T15:16:14;34.40;48.40
59309;DHT22;48433;53.016;-2.260;2023-06-22T15:18:42;34.20;48.80
59309;DHT22;48433;53.016;-2.260;2023-06-22T15:21:10;34.20;48.40
59309;DHT22;48433;53.016;-2.260;2023-06-22T15:23:37;34.30;49.10
59309;DHT22;48433;53.016;-2.260;2023-06-22T15:26:05;34.50;48.80
59309;DHT22;48433;53.016;-2.260;2023-06-22T15:28:33;34.70;48.70
59309;DHT22;48433;53.016;-2.260;2023-06-22T15:31:02;34.80;46.50
59309;DHT22;48433;53.016;-2.260;2023-06-22T15:33:30;34.70;46.40
59309;DHT22;48433;53.016;-2.260;2023-06-22T15:38:33;34.70;46.70
59309;DHT22;48433;53.016;-2.260;2023-06-22T15:41:01;34.60;46.80
59309;DHT22;48433;53.016;-2.260;2023-06-22T15:43:29;34.50;47.50
59309;DHT22;48433;53.016;-2.260;2023-06-22T15:45:57;34.40;47.70
59309;DHT22;48433;53.016;-2.260;2023-06-22T15:48:24;34.20;48.00
59309;DHT22;48433;53.016;-2.260;2023-06-22T15:50:52;34.10;47.20
59309;DHT22;48433;53.016;-2.260;2023-06-22T15:53:20;34.10;47.70
59309;DHT22;48433;53.016;-2.260;2023-06-22T15:55:47;34.00;47.80